sensor_id;sensor_type;location;lat;lon;timestamp;temperature;humidity
19999;DHT22;10160;50.926;4.374;2023-12-20T00:01:37;7.50;99.90
19999;DHT22;10160;50.926;4.374;2023-12-20T00:04:03;7.40;99.90
19999;DHT22;10160;50.926;4.374;2023-12-20T00:06:29;7.40;99.90
19999;DHT22;10160;50.926;4.374;2023-12-20T00:08:55;7.40;99.90
19999;DHT22;10160;50.926;4.374;2023-12-20T00:11:21;7.50;99.90
19999;DHT22;10160;50.926;4.374;2023-12-20T00:13:46;7.50;99.90
19999;DHT22;10160;50.926;4.374;2023-12-20T00:16:12;7.50;99.90
19999;DHT22;10160;50.926;4.374;2023-12-20T00:18:38;7.30;99.90
19999;DHT22;10160;50.926;4.374;2023-12-20T00:21:04;7.30;99.90
19999;DHT22;10160;50.926;4.374;2023-12-20T00:23:29;7.20;99.90
19999;DHT22;10160;50.926;4.374;2023-12-20T00:25:58;7.10;99.90
19999;DHT22;10160;50.926;4.374;2023-12-20T00:28:24;7.10;99.90
19999;DHT22;10160;50.926;4.374;2023-12-20T00:30:49;7.20;99.90
19999;DHT22;10160;50.926;4.374;2023-12-20T00:33:15;7.30;99.90
19999;DHT22;10160;50.926;4.374;2023-12-20T00:35:41;7.20;99.90
19999;DHT22;10160;50.926;4.374;2023-12-20T00:38:06;7.10;99.90
19999;DHT22;10160;50.926;4.374;2023-12-20T00:40:34;7.10;99.90
19999;DHT22;10160;50.926;4.374;2023-12-20T00:42:59;7.10;99.90
19999;DHT22;10160;50.926;4.374;2023-12-20T00:45:25;7.20;99.90
19999;DHT22;10160;50.926;4.374;2023-12-20T00:47:50;7.20;99.90
19999;DHT22;10160;50.926;4.374;2023-12-20T00:50:16;7.20;99.90
19999;DHT22;10160;50.926;4.374;2023-12-20T00:52:42;7.10;99.90
19999;DHT22;10160;50.926;4.374;2023-12-20T00:55:07;7.20;99.90
19999;DHT22;10160;50.926;4.374;2023-12-20T00:57:33;7.20;99.90
19999;DHT22;10160;50.926;4.374;2023-12-20T00:59:59;7.20;99.90
19999;DHT22;10160;50.926;4.374;2023-12-20T01:02:25;7.10;99.90
19999;DHT22;10160;50.926;4.374;2023-12-20T01:04:51;7.10;99.90
19999;DHT22;10160;50.926;4.374;2023-12-20T01:07:16;7.10;99.90
19999;DHT22;10160;50.926;4.374;2023-12-20T01:09:42;7.10;99.90
19999;DHT22;10160;50.926;4.374;2023-12-20T01:12:07;7.10;99.90
19999;DHT22;10160;50.926;4.374;2023-12-20T01:14:33;7.00;99.90
19999;DHT22;10160;50.926;4.374;2023-12-20T01:16:59;7.00;99.90
19999;DHT22;10160;50.926;4.374;2023-12-20T01:19:25;6.90;99.90
19999;DHT22;10160;50.926;4.374;2023-12-20T01:21:50;7.00;99.90
19999;DHT22;10160;50.926;4.374;2023-12-20T01:24:16;6.90;99.90
19999;DHT22;10160;50.926;4.374;2023-12-20T01:26:42;6.80;99.90
19999;DHT22;10160;50.926;4.374;2023-12-20T01:29:07;6.80;99.90
19999;DHT22;10160;50.926;4.374;2023-12-20T01:31:36;6.90;99.90
19999;DHT22;10160;50.926;4.374;2023-12-20T01:34:01;6.90;99.90
19999;DHT22;10160;50.926;4.374;2023-12-20T01:36:27;6.90;99.90
19999;DHT22;10160;50.926;4.374;2023-12-20T01:38:52;6.80;99.90
19999;DHT22;10160;50.926;4.374;2023-12-20T01:41:18;6.80;99.90
19999;DHT22;10160;50.926;4.374;2023-12-20T01:43:47;6.80;99.90
19999;DHT22;10160;50.926;4.374;2023-12-20T01:46:12;6.90;99.90
19999;DHT22;10160;50.926;4.374;2023-12-20T01:48:38;6.90;99.90
19999;DHT22;10160;50.926;4.374;2023-12-20T01:51:07;7.00;99.90
19999;DHT22;10160;50.926;4.374;2023-12-20T01:53:33;7.00;99.90
19999;DHT22;10160;50.926;4.374;2023-12-20T01:56:00;6.90;99.90
19999;DHT22;10160;50.926;4.374;2023-12-20T01:58:26;6.90;99.90
19999;DHT22;10160;50.926;4.374;2023-12-20T02:00:52;6.90;99.90
19999;DHT22;10160;50.926;4.374;2023-12-20T02:03:18;6.90;99.90
19999;DHT22;10160;50.926;4.374;2023-12-20T02:05:47;6.90;99.90
19999;DHT22;10160;50.926;4.374;2023-12-20T02:08:13;6.90;99.90
19999;DHT22;10160;50.926;4.374;2023-12-20T02:10:39;6.80;99.90
19999;DHT22;10160;50.926;4.374;2023-12-20T02:13:06;6.90;99.90
19999;DHT22;10160;50.926;4.374;2023-12-20T02:15:32;6.90;99.90
19999;DHT22;10160;50.926;4.374;2023-12-20T02:17:59;6.90;99.90
19999;DHT22;10160;50.926;4.374;2023-12-20T02:20:24;6.90;99.90
19999;DHT22;10160;50.926;4.374;2023-12-20T02:22:50;7.00;99.90
19999;DHT22;10160;50.926;4.374;2023-12-20T02:25:16;6.70;99.90
19999;DHT22;10160;50.926;4.374;2023-12-20T02:27:41;6.90;99.90
19999;DHT22;10160;50.926;4.374;2023-12-20T02:30:07;6.90;99.90
19999;DHT22;10160;50.926;4.374;2023-12-20T02:32:33;6.90;99.90
19999;DHT22;10160;50.926;4.374;2023-12-20T02:34:59;6.90;99.90
19999;DHT22;10160;50.926;4.374;2023-12-20T02:37:25;6.90;99.90
19999;DHT22;10160;50.926;4.374;2023-12-20T02:39:50;6.90;99.90
19999;DHT22;10160;50.926;4.374;2023-12-20T02:42:16;6.90;99.90
19999;DHT22;10160;50.926;4.374;2023-12-20T02:44:41;6.90;99.90
19999;DHT22;10160;50.926;4.374;2023-12-20T02:47:07;6.90;99.90
19999;DHT22;10160;50.926;4.374;2023-12-20T02:49:33;6.90;99.90
19999;DHT22;10160;50.926;4.374;2023-12-20T02:52:01;6.90;99.90
19999;DHT22;10160;50.926;4.374;2023-12-20T02:54:27;6.80;99.90
19999;DHT22;10160;50.926;4.374;2023-12-20T02:56:53;6.90;99.90
19999;DHT22;10160;50.926;4.374;2023-12-20T02:59:18;6.90;99.90
19999;DHT22;10160;50.926;4.374;2023-12-20T03:01:45;6.90;99.90
19999;DHT22;10160;50.926;4.374;2023-12-20T03:04:11;6.90;99.90
19999;DHT22;10160;50.926;4.374;2023-12-20T03:06:37;7.00;99.90
19999;DHT22;10160;50.926;4.374;2023-12-20T03:09:06;7.00;99.90
19999;DHT22;10160;50.926;4.374;2023-12-20T03:11:31;7.00;99.90
19999;DHT22;10160;50.926;4.374;2023-12-20T03:13:57;7.00;99.90
19999;DHT22;10160;50.926;4.374;2023-12-20T03:16:23;7.00;99.90
19999;DHT22;10160;50.926;4.374;2023-12-20T03:18:49;6.90;99.90
19999;DHT22;10160;50.926;4.374;2023-12-20T03:21:14;6.90;99.90
19999;DHT22;10160;50.926;4.374;2023-12-20T03:23:40;6.80;99.90
19999;DHT22;10160;50.926;4.374;2023-12-20T03:26:09;6.80;99.90
19999;DHT22;10160;50.926;4.374;2023-12-20T03:28:36;6.80;99.90
19999;DHT22;10160;50.926;4.374;2023-12-20T03:31:02;6.80;99.90
19999;DHT22;10160;50.926;4.374;2023-12-20T03:33:28;6.90;99.90
19999;DHT22;10160;50.926;4.374;2023-12-20T03:35:54;6.90;99.90
19999;DHT22;10160;50.926;4.374;2023-12-20T03:38:23;6.90;99.90
19999;DHT22;10160;50.926;4.374;2023-12-20T03:40:49;7.00;99.90
19999;DHT22;10160;50.926;4.374;2023-12-20T03:43:15;6.90;99.90
19999;DHT22;10160;50.926;4.374;2023-12-20T03:45:42;7.00;99.90
19999;DHT22;10160;50.926;4.374;2023-12-20T03:48:08;7.00;99.90
19999;DHT22;10160;50.926;4.374;2023-12-20T03:50:36;7.10;99.90
19999;DHT22;10160;50.926;4.374;2023-12-20T03:53:02;7.10;99.90
19999;DHT22;10160;50.926;4.374;2023-12-20T03:55:27;7.10;99.90
19999;DHT22;10160;50.926;4.374;2023-12-20T03:57:53;7.10;99.90
19999;DHT22;10160;50.926;4.374;2023-12-20T04:00:21;7.10;99.90
19999;DHT22;10160;50.926;4.374;2023-12-20T04:02:47;7.20;99.90
19999;DHT22;10160;50.926;4.374;2023-12-20T04:05:13;7.20;99.90
19999;DHT22;10160;50.926;4.374;2023-12-20T04:07:38;7.10;99.90
19999;DHT22;10160;50.926;4.374;2023-12-20T04:10:07;7.10;99.90
19999;DHT22;10160;50.926;4.374;2023-12-20T04:12:33;7.20;99.90
19999;DHT22;10160;50.926;4.374;2023-12-20T04:14:59;7.20;99.90
19999;DHT22;10160;50.926;4.374;2023-12-20T04:17:25;7.20;99.90
19999;DHT22;10160;50.926;4.374;2023-12-20T04:19:51;7.30;99.90
19999;DHT22;10160;50.926;4.374;2023-12-20T04:22:18;7.20;99.90
19999;DHT22;10160;50.926;4.374;2023-12-20T04:24:44;7.20;99.90
19999;DHT22;10160;50.926;4.374;2023-12-20T04:27:12;7.20;99.90
19999;DHT22;10160;50.926;4.374;2023-12-20T04:29:38;7.10;99.90
19999;DHT22;10160;50.926;4.374;2023-12-20T04:32:04;7.20;99.90
19999;DHT22;10160;50.926;4.374;2023-12-20T04:34:30;7.10;99.90
19999;DHT22;10160;50.926;4.374;2023-12-20T04:36:56;7.00;99.90
19999;DHT22;10160;50.926;4.374;2023-12-20T04:39:21;6.90;99.90
19999;DHT22;10160;50.926;4.374;2023-12-20T04:41:47;7.00;99.90
19999;DHT22;10160;50.926;4.374;2023-12-20T04:44:16;7.10;99.90
19999;DHT22;10160;50.926;4.374;2023-12-20T04:46:42;7.10;99.90
19999;DHT22;10160;50.926;4.374;2023-12-20T04:49:07;7.10;99.90
19999;DHT22;10160;50.926;4.374;2023-12-20T04:51:33;7.00;99.90
19999;DHT22;10160;50.926;4.374;2023-12-20T04:54:00;7.00;99.90
19999;DHT22;10160;50.926;4.374;2023-12-20T04:56:25;6.90;99.90
19999;DHT22;10160;50.926;4.374;2023-12-20T04:58:51;6.90;99.90
19999;DHT22;10160;50.926;4.374;2023-12-20T05:01:17;6.90;99.90
19999;DHT22;10160;50.926;4.374;2023-12-20T05:03:42;6.90;99.90
19999;DHT22;10160;50.926;4.374;2023-12-20T05:06:09;7.00;99.90
19999;DHT22;10160;50.926;4.374;2023-12-20T05:08:35;7.00;99.90
19999;DHT22;10160;50.926;4.374;2023-12-20T05:11:04;7.00;99.90
19999;DHT22;10160;50.926;4.374;2023-12-20T05:13:30;6.90;99.90
19999;DHT22;10160;50.926;4.374;2023-12-20T05:15:55;6.80;99.90
19999;DHT22;10160;50.926;4.374;2023-12-20T05:18:21;6.90;99.90
19999;DHT22;10160;50.926;4.374;2023-12-20T05:20:49;6.90;99.90
19999;DHT22;10160;50.926;4.374;2023-12-20T05:23:15;6.90;99.90
19999;DHT22;10160;50.926;4.374;2023-12-20T05:25:40;6.80;99.90
19999;DHT22;10160;50.926;4.374;2023-12-20T05:28:06;6.70;99.90
19999;DHT22;10160;50.926;4.374;2023-12-20T05:30:32;6.70;99.90
19999;DHT22;10160;50.926;4.374;2023-12-20T05:32:57;6.80;99.90
19999;DHT22;10160;50.926;4.374;2023-12-20T05:35:23;6.70;99.90
19999;DHT22;10160;50.926;4.374;2023-12-20T05:37:49;6.70;99.90
19999;DHT22;10160;50.926;4.374;2023-12-20T05:40:15;6.80;99.90
19999;DHT22;10160;50.926;4.374;2023-12-20T05:42:40;6.70;99.90
19999;DHT22;10160;50.926;4.374;2023-12-20T05:45:06;6.80;99.90
19999;DHT22;10160;50.926;4.374;2023-12-20T05:47:32;6.60;99.90
19999;DHT22;10160;50.926;4.374;2023-12-20T05:50:01;6.60;99.90
19999;DHT22;10160;50.926;4.374;2023-12-20T05:52:26;6.50;99.90
19999;DHT22;10160;50.926;4.374;2023-12-20T05:54:52;6.50;99.90
19999;DHT22;10160;50.926;4.374;2023-12-20T05:57:18;6.50;99.90
19999;DHT22;10160;50.926;4.374;2023-12-20T05:59:43;6.50;99.90
19999;DHT22;10160;50.926;4.374;2023-12-20T06:02:09;6.60;99.90
19999;DHT22;10160;50.926;4.374;2023-12-20T06:04:34;6.50;99.90
19999;DHT22;10160;50.926;4.374;2023-12-20T06:07:00;6.50;99.90
19999;DHT22;10160;50.926;4.374;2023-12-20T06:09:29;6.50;99.90
19999;DHT22;10160;50.926;4.374;2023-12-20T06:11:55;6.50;99.90
19999;DHT22;10160;50.926;4.374;2023-12-20T06:14:21;6.50;99.90
19999;DHT22;10160;50.926;4.374;2023-12-20T06:16:46;6.50;99.90
19999;DHT22;10160;50.926;4.374;2023-12-20T06:19:12;6.50;99.90
19999;DHT22;10160;50.926;4.374;2023-12-20T06:21:38;6.50;99.90
19999;DHT22;10160;50.926;4.374;2023-12-20T06:24:03;6.50;99.90
19999;DHT22;10160;50.926;4.374;2023-12-20T06:26:29;6.60;99.90
19999;DHT22;10160;50.926;4.374;2023-12-20T06:28:55;6.60;99.90
19999;DHT22;10160;50.926;4.374;2023-12-20T06:31:20;6.60;99.90
19999;DHT22;10160;50.926;4.374;2023-12-20T06:33:46;6.60;99.90
19999;DHT22;10160;50.926;4.374;2023-12-20T06:36:12;6.50;99.90
19999;DHT22;10160;50.926;4.374;2023-12-20T06:38:39;6.50;99.90
19999;DHT22;10160;50.926;4.374;2023-12-20T06:41:05;6.60;99.90
19999;DHT22;10160;50.926;4.374;2023-12-20T06:43:31;6.60;99.90
19999;DHT22;10160;50.926;4.374;2023-12-20T06:45:58;6.60;99.90
19999;DHT22;10160;50.926;4.374;2023-12-20T06:48:23;6.50;99.90
19999;DHT22;10160;50.926;4.374;2023-12-20T06:50:49;6.50;99.90
19999;DHT22;10160;50.926;4.374;2023-12-20T06:53:15;6.40;99.90
19999;DHT22;10160;50.926;4.374;2023-12-20T06:55:40;6.30;99.90
19999;DHT22;10160;50.926;4.374;2023-12-20T06:58:06;6.20;99.90
19999;DHT22;10160;50.926;4.374;2023-12-20T07:00:32;6.10;99.90
19999;DHT22;10160;50.926;4.374;2023-12-20T07:02:58;6.20;99.90
19999;DHT22;10160;50.926;4.374;2023-12-20T07:05:27;6.20;99.90
19999;DHT22;10160;50.926;4.374;2023-12-20T07:07:53;6.10;99.90
19999;DHT22;10160;50.926;4.374;2023-12-20T07:10:19;6.30;99.90
19999;DHT22;10160;50.926;4.374;2023-12-20T07:12:44;6.20;99.90
19999;DHT22;10160;50.926;4.374;2023-12-20T07:15:10;6.20;99.90
19999;DHT22;10160;50.926;4.374;2023-12-20T07:17:36;6.10;99.90
19999;DHT22;10160;50.926;4.374;2023-12-20T07:20:02;6.10;99.90
19999;DHT22;10160;50.926;4.374;2023-12-20T07:22:30;6.20;99.90
19999;DHT22;10160;50.926;4.374;2023-12-20T07:24:57;6.10;99.90
19999;DHT22;10160;50.926;4.374;2023-12-20T07:27:23;6.10;99.90
19999;DHT22;10160;50.926;4.374;2023-12-20T07:29:49;6.10;99.90
19999;DHT22;10160;50.926;4.374;2023-12-20T07:32:22;6.10;99.90
19999;DHT22;10160;50.926;4.374;2023-12-20T07:34:47;6.10;99.90
19999;DHT22;10160;50.926;4.374;2023-12-20T07:37:13;6.10;99.90
19999;DHT22;10160;50.926;4.374;2023-12-20T07:39:40;6.00;99.90
19999;DHT22;10160;50.926;4.374;2023-12-20T07:42:06;6.00;99.90
19999;DHT22;10160;50.926;4.374;2023-12-20T07:44:32;6.00;99.90
19999;DHT22;10160;50.926;4.374;2023-12-20T07:46:58;6.00;99.90
19999;DHT22;10160;50.926;4.374;2023-12-20T07:49:24;6.00;99.90
19999;DHT22;10160;50.926;4.374;2023-12-20T07:51:49;6.00;99.90
19999;DHT22;10160;50.926;4.374;2023-12-20T07:54:18;6.10;99.90
19999;DHT22;10160;50.926;4.374;2023-12-20T07:56:44;6.10;99.90
19999;DHT22;10160;50.926;4.374;2023-12-20T07:59:09;6.10;99.90
19999;DHT22;10160;50.926;4.374;2023-12-20T08:01:36;6.10;99.90
19999;DHT22;10160;50.926;4.374;2023-12-20T08:04:01;6.10;99.90
19999;DHT22;10160;50.926;4.374;2023-12-20T08:06:27;6.10;99.90
19999;DHT22;10160;50.926;4.374;2023-12-20T08:08:53;6.10;99.90
19999;DHT22;10160;50.926;4.374;2023-12-20T08:11:19;6.10;99.90
19999;DHT22;10160;50.926;4.374;2023-12-20T08:13:44;6.10;99.90
19999;DHT22;10160;50.926;4.374;2023-12-20T08:16:10;6.10;99.90
19999;DHT22;10160;50.926;4.374;2023-12-20T08:18:39;6.20;99.90
19999;DHT22;10160;50.926;4.374;2023-12-20T08:21:05;6.30;99.90
19999;DHT22;10160;50.926;4.374;2023-12-20T08:23:35;6.40;99.90
19999;DHT22;10160;50.926;4.374;2023-12-20T08:26:07;6.40;99.90
19999;DHT22;10160;50.926;4.374;2023-12-20T08:28:35;6.50;99.90
19999;DHT22;10160;50.926;4.374;2023-12-20T08:31:02;6.60;99.90
19999;DHT22;10160;50.926;4.374;2023-12-20T08:33:27;6.60;99.90
19999;DHT22;10160;50.926;4.374;2023-12-20T08:35:53;6.50;99.90
19999;DHT22;10160;50.926;4.374;2023-12-20T08:38:19;6.60;99.90
19999;DHT22;10160;50.926;4.374;2023-12-20T08:40:45;6.60;99.90
19999;DHT22;10160;50.926;4.374;2023-12-20T08:43:10;6.70;99.90
19999;DHT22;10160;50.926;4.374;2023-12-20T08:45:36;6.70;99.90
19999;DHT22;10160;50.926;4.374;2023-12-20T08:48:02;6.60;99.90
19999;DHT22;10160;50.926;4.374;2023-12-20T08:50:28;6.60;99.90
19999;DHT22;10160;50.926;4.374;2023-12-20T08:52:54;6.70;99.90
19999;DHT22;10160;50.926;4.374;2023-12-20T08:55:20;6.90;99.90
19999;DHT22;10160;50.926;4.374;2023-12-20T08:57:46;6.90;99.90
19999;DHT22;10160;50.926;4.374;2023-12-20T09:00:12;6.90;99.90
19999;DHT22;10160;50.926;4.374;2023-12-20T09:02:38;7.00;99.90
19999;DHT22;10160;50.926;4.374;2023-12-20T09:05:04;7.10;99.90
19999;DHT22;10160;50.926;4.374;2023-12-20T09:07:30;7.00;99.90
19999;DHT22;10160;50.926;4.374;2023-12-20T09:09:58;6.90;99.90
19999;DHT22;10160;50.926;4.374;2023-12-20T09:12:24;7.00;99.90
19999;DHT22;10160;50.926;4.374;2023-12-20T09:14:54;7.10;99.90
19999;DHT22;10160;50.926;4.374;2023-12-20T09:17:20;7.10;99.90
19999;DHT22;10160;50.926;4.374;2023-12-20T09:19:48;7.10;99.90
19999;DHT22;10160;50.926;4.374;2023-12-20T09:22:14;7.20;99.90
19999;DHT22;10160;50.926;4.374;2023-12-20T09:24:40;7.40;99.90
19999;DHT22;10160;50.926;4.374;2023-12-20T09:27:06;7.60;99.90
19999;DHT22;10160;50.926;4.374;2023-12-20T09:29:32;7.70;99.90
19999;DHT22;10160;50.926;4.374;2023-12-20T09:31:57;7.90;99.90
19999;DHT22;10160;50.926;4.374;2023-12-20T09:34:23;8.00;99.90
19999;DHT22;10160;50.926;4.374;2023-12-20T09:36:51;8.10;99.90
19999;DHT22;10160;50.926;4.374;2023-12-20T09:39:18;8.10;99.90
19999;DHT22;10160;50.926;4.374;2023-12-20T09:42:04;8.20;99.90
19999;DHT22;10160;50.926;4.374;2023-12-20T09:44:31;8.50;99.90
19999;DHT22;10160;50.926;4.374;2023-12-20T09:46:57;8.40;99.90
19999;DHT22;10160;50.926;4.374;2023-12-20T09:49:27;8.40;99.90
19999;DHT22;10160;50.926;4.374;2023-12-20T09:51:54;8.20;99.90
19999;DHT22;10160;50.926;4.374;2023-12-20T09:54:20;8.10;99.90
19999;DHT22;10160;50.926;4.374;2023-12-20T09:56:47;7.90;99.90
19999;DHT22;10160;50.926;4.374;2023-12-20T09:59:13;7.80;99.90
19999;DHT22;10160;50.926;4.374;2023-12-20T10:01:43;7.80;99.90
19999;DHT22;10160;50.926;4.374;2023-12-20T10:04:10;7.80;99.90
19999;DHT22;10160;50.926;4.374;2023-12-20T10:06:42;7.80;99.90
19999;DHT22;10160;50.926;4.374;2023-12-20T10:09:08;7.90;99.90
19999;DHT22;10160;50.926;4.374;2023-12-20T10:11:38;7.90;99.90
19999;DHT22;10160;50.926;4.374;2023-12-20T10:14:05;8.10;99.90
19999;DHT22;10160;50.926;4.374;2023-12-20T10:16:31;8.80;99.90
19999;DHT22;10160;50.926;4.374;2023-12-20T10:18:58;8.70;99.90
19999;DHT22;10160;50.926;4.374;2023-12-20T10:21:24;8.50;99.90
19999;DHT22;10160;50.926;4.374;2023-12-20T10:23:52;8.40;99.90
19999;DHT22;10160;50.926;4.374;2023-12-20T10:26:21;8.30;99.90
19999;DHT22;10160;50.926;4.374;2023-12-20T10:28:54;8.30;99.90
19999;DHT22;10160;50.926;4.374;2023-12-20T10:31:31;8.10;99.90
19999;DHT22;10160;50.926;4.374;2023-12-20T10:33:58;8.10;99.90
19999;DHT22;10160;50.926;4.374;2023-12-20T10:36:26;8.10;99.90
19999;DHT22;10160;50.926;4.374;2023-12-20T10:38:55;8.10;99.90
19999;DHT22;10160;50.926;4.374;2023-12-20T10:41:32;8.10;99.90
19999;DHT22;10160;50.926;4.374;2023-12-20T10:44:00;8.20;99.90
19999;DHT22;10160;50.926;4.374;2023-12-20T10:46:29;8.20;99.90
19999;DHT22;10160;50.926;4.374;2023-12-20T10:48:56;8.30;99.90
19999;DHT22;10160;50.926;4.374;2023-12-20T10:51:23;8.20;99.90
19999;DHT22;10160;50.926;4.374;2023-12-20T10:53:52;8.40;99.90
19999;DHT22;10160;50.926;4.374;2023-12-20T10:56:19;8.40;99.90
19999;DHT22;10160;50.926;4.374;2023-12-20T10:58:46;8.40;99.90
19999;DHT22;10160;50.926;4.374;2023-12-20T11:01:17;8.50;99.90
19999;DHT22;10160;50.926;4.374;2023-12-20T11:03:50;8.50;99.90
19999;DHT22;10160;50.926;4.374;2023-12-20T11:06:48;8.60;99.90
19999;DHT22;10160;50.926;4.374;2023-12-20T11:09:26;8.60;99.90
19999;DHT22;10160;50.926;4.374;2023-12-20T11:14:25;8.60;99.90
19999;DHT22;10160;50.926;4.374;2023-12-20T11:17:06;8.60;99.90
19999;DHT22;10160;50.926;4.374;2023-12-20T11:19:32;8.70;99.90
19999;DHT22;10160;50.926;4.374;2023-12-20T11:21:58;8.60;99.90
19999;DHT22;10160;50.926;4.374;2023-12-20T11:24:25;8.60;99.90
19999;DHT22;10160;50.926;4.374;2023-12-20T11:26:56;8.60;99.90
19999;DHT22;10160;50.926;4.374;2023-12-20T11:29:34;8.50;99.90
19999;DHT22;10160;50.926;4.374;2023-12-20T11:32:02;8.60;99.90
19999;DHT22;10160;50.926;4.374;2023-12-20T11:34:31;8.50;99.90
19999;DHT22;10160;50.926;4.374;2023-12-20T11:36:58;8.70;99.90
19999;DHT22;10160;50.926;4.374;2023-12-20T11:39:32;8.70;99.90
19999;DHT22;10160;50.926;4.374;2023-12-20T11:42:04;8.60;99.90
19999;DHT22;10160;50.926;4.374;2023-12-20T11:44:30;8.70;99.90
19999;DHT22;10160;50.926;4.374;2023-12-20T11:46:56;8.70;99.90
19999;DHT22;10160;50.926;4.374;2023-12-20T11:49:23;8.70;99.90
19999;DHT22;10160;50.926;4.374;2023-12-20T11:51:50;8.80;99.90
19999;DHT22;10160;50.926;4.374;2023-12-20T11:54:16;8.80;99.90
19999;DHT22;10160;50.926;4.374;2023-12-20T11:56:42;8.70;99.90
19999;DHT22;10160;50.926;4.374;2023-12-20T11:59:08;8.80;99.90
19999;DHT22;10160;50.926;4.374;2023-12-20T12:01:34;8.90;99.90
19999;DHT22;10160;50.926;4.374;2023-12-20T12:04:07;8.80;99.90
19999;DHT22;10160;50.926;4.374;2023-12-20T12:06:33;8.90;99.90
19999;DHT22;10160;50.926;4.374;2023-12-20T12:08:59;8.80;99.90
19999;DHT22;10160;50.926;4.374;2023-12-20T12:11:25;8.80;99.90
19999;DHT22;10160;50.926;4.374;2023-12-20T12:13:51;8.90;99.90
19999;DHT22;10160;50.926;4.374;2023-12-20T12:16:17;8.90;99.90
19999;DHT22;10160;50.926;4.374;2023-12-20T12:18:44;8.90;99.90
19999;DHT22;10160;50.926;4.374;2023-12-20T12:21:10;8.90;99.90
19999;DHT22;10160;50.926;4.374;2023-12-20T12:23:44;8.90;99.90
19999;DHT22;10160;50.926;4.374;2023-12-20T12:26:09;8.90;99.90
19999;DHT22;10160;50.926;4.374;2023-12-20T12:28:35;8.80;99.90
19999;DHT22;10160;50.926;4.374;2023-12-20T12:31:01;8.90;99.90
19999;DHT22;10160;50.926;4.374;2023-12-20T12:33:27;9.00;99.90
19999;DHT22;10160;50.926;4.374;2023-12-20T12:35:53;9.00;99.90
19999;DHT22;10160;50.926;4.374;2023-12-20T12:38:21;9.00;99.90
19999;DHT22;10160;50.926;4.374;2023-12-20T12:40:47;8.90;99.90
19999;DHT22;10160;50.926;4.374;2023-12-20T12:43:13;9.00;99.90
19999;DHT22;10160;50.926;4.374;2023-12-20T12:45:39;9.00;99.90
19999;DHT22;10160;50.926;4.374;2023-12-20T12:48:06;9.00;99.90
19999;DHT22;10160;50.926;4.374;2023-12-20T12:50:32;9.00;99.90
19999;DHT22;10160;50.926;4.374;2023-12-20T12:52:57;9.00;99.90
19999;DHT22;10160;50.926;4.374;2023-12-20T12:55:23;9.00;99.90
19999;DHT22;10160;50.926;4.374;2023-12-20T12:57:49;9.10;99.90
19999;DHT22;10160;50.926;4.374;2023-12-20T13:00:15;9.10;99.90
19999;DHT22;10160;50.926;4.374;2023-12-20T13:02:40;9.20;99.90
19999;DHT22;10160;50.926;4.374;2023-12-20T13:05:09;9.20;99.90
19999;DHT22;10160;50.926;4.374;2023-12-20T13:07:35;9.10;99.90
19999;DHT22;10160;50.926;4.374;2023-12-20T13:10:01;9.10;99.90
19999;DHT22;10160;50.926;4.374;2023-12-20T13:12:27;9.10;99.90
19999;DHT22;10160;50.926;4.374;2023-12-20T13:14:52;9.10;99.90
19999;DHT22;10160;50.926;4.374;2023-12-20T13:17:19;9.10;99.90
19999;DHT22;10160;50.926;4.374;2023-12-20T13:19:45;9.20;99.90
19999;DHT22;10160;50.926;4.374;2023-12-20T13:22:11;9.30;99.90
19999;DHT22;10160;50.926;4.374;2023-12-20T13:24:36;9.40;99.90
19999;DHT22;10160;50.926;4.374;2023-12-20T13:27:02;9.40;99.90
19999;DHT22;10160;50.926;4.374;2023-12-20T13:29:28;9.40;99.90
19999;DHT22;10160;50.926;4.374;2023-12-20T13:31:54;9.40;99.90
19999;DHT22;10160;50.926;4.374;2023-12-20T13:34:19;9.40;99.90
19999;DHT22;10160;50.926;4.374;2023-12-20T13:36:45;9.40;99.90
19999;DHT22;10160;50.926;4.374;2023-12-20T13:39:13;9.30;99.90
19999;DHT22;10160;50.926;4.374;2023-12-20T13:41:42;9.30;99.90
19999;DHT22;10160;50.926;4.374;2023-12-20T13:44:08;9.30;99.90
19999;DHT22;10160;50.926;4.374;2023-12-20T13:46:34;9.40;99.90
19999;DHT22;10160;50.926;4.374;2023-12-20T13:48:59;9.40;99.90
19999;DHT22;10160;50.926;4.374;2023-12-20T13:51:25;9.40;99.90
19999;DHT22;10160;50.926;4.374;2023-12-20T13:53:51;9.30;99.90
19999;DHT22;10160;50.926;4.374;2023-12-20T13:56:17;9.30;99.90
19999;DHT22;10160;50.926;4.374;2023-12-20T13:58:43;9.40;99.90
19999;DHT22;10160;50.926;4.374;2023-12-20T14:01:10;9.40;99.90
19999;DHT22;10160;50.926;4.374;2023-12-20T14:03:36;9.50;99.90
19999;DHT22;10160;50.926;4.374;2023-12-20T14:06:02;9.50;99.90
19999;DHT22;10160;50.926;4.374;2023-12-20T14:08:31;9.50;99.90
19999;DHT22;10160;50.926;4.374;2023-12-20T14:10:56;9.50;99.90
19999;DHT22;10160;50.926;4.374;2023-12-20T14:13:22;9.50;99.90
19999;DHT22;10160;50.926;4.374;2023-12-20T14:15:50;9.50;99.90
19999;DHT22;10160;50.926;4.374;2023-12-20T14:18:16;9.50;99.90
19999;DHT22;10160;50.926;4.374;2023-12-20T14:20:42;9.50;99.90
19999;DHT22;10160;50.926;4.374;2023-12-20T14:23:08;9.50;99.90
19999;DHT22;10160;50.926;4.374;2023-12-20T14:25:37;9.50;99.90
19999;DHT22;10160;50.926;4.374;2023-12-20T14:28:06;9.60;99.90
19999;DHT22;10160;50.926;4.374;2023-12-20T14:30:31;9.50;99.90
19999;DHT22;10160;50.926;4.374;2023-12-20T14:32:57;9.50;99.90
19999;DHT22;10160;50.926;4.374;2023-12-20T14:35:24;9.60;99.90
19999;DHT22;10160;50.926;4.374;2023-12-20T14:37:50;9.60;99.90
19999;DHT22;10160;50.926;4.374;2023-12-20T14:40:16;9.60;99.90
19999;DHT22;10160;50.926;4.374;2023-12-20T14:42:42;9.60;99.90
19999;DHT22;10160;50.926;4.374;2023-12-20T14:45:09;9.70;99.90
19999;DHT22;10160;50.926;4.374;2023-12-20T14:47:38;9.70;99.90
19999;DHT22;10160;50.926;4.374;2023-12-20T14:50:04;9.70;99.90
19999;DHT22;10160;50.926;4.374;2023-12-20T14:52:31;9.60;99.90
19999;DHT22;10160;50.926;4.374;2023-12-20T14:54:56;9.70;99.90
19999;DHT22;10160;50.926;4.374;2023-12-20T14:57:25;9.70;99.90
19999;DHT22;10160;50.926;4.374;2023-12-20T14:59:57;9.70;99.90
19999;DHT22;10160;50.926;4.374;2023-12-20T15:02:23;9.70;99.90
19999;DHT22;10160;50.926;4.374;2023-12-20T15:04:49;9.70;99.90
19999;DHT22;10160;50.926;4.374;2023-12-20T15:07:16;9.60;99.90
19999;DHT22;10160;50.926;4.374;2023-12-20T15:09:42;9.60;99.90
19999;DHT22;10160;50.926;4.374;2023-12-20T15:12:11;9.60;99.90
19999;DHT22;10160;50.926;4.374;2023-12-20T15:14:38;9.60;99.90
19999;DHT22;10160;50.926;4.374;2023-12-20T15:17:03;9.70;99.90
19999;DHT22;10160;50.926;4.374;2023-12-20T15:19:30;9.80;99.90
19999;DHT22;10160;50.926;4.374;2023-12-20T15:21:56;9.80;99.90
19999;DHT22;10160;50.926;4.374;2023-12-20T15:24:24;9.80;99.90
19999;DHT22;10160;50.926;4.374;2023-12-20T15:26:54;9.70;99.90
19999;DHT22;10160;50.926;4.374;2023-12-20T15:29:20;9.70;99.90
19999;DHT22;10160;50.926;4.374;2023-12-20T15:31:47;9.70;99.90
19999;DHT22;10160;50.926;4.374;2023-12-20T15:34:14;9.80;99.90
19999;DHT22;10160;50.926;4.374;2023-12-20T15:36:40;9.80;99.90
19999;DHT22;10160;50.926;4.374;2023-12-20T15:39:06;9.90;99.90
19999;DHT22;10160;50.926;4.374;2023-12-20T15:41:34;9.90;99.90
19999;DHT22;10160;50.926;4.374;2023-12-20T15:44:00;9.90;99.90